createdAt,value
2023-05-14T00:01:36.752Z,97988.28
2023-05-14T00:04:04.323Z,97981.81
2023-05-14T00:06:31.796Z,97976.16
2023-05-14T00:08:58.321Z,97966.09
2023-05-14T00:11:24.814Z,97975.53
2023-05-14T00:13:51.340Z,97960.81
2023-05-14T00:16:17.890Z,97970.72
2023-05-14T00:18:44.430Z,97975.38
2023-05-14T00:21:11.039Z,97964.09
2023-05-14T00:23:38.598Z,97963.59
2023-05-14T00:26:05.140Z,97971.38
2023-05-14T00:28:31.660Z,97975.84
2023-05-14T00:30:58.227Z,97969.41
2023-05-14T00:33:24.714Z,97979.66
2023-05-14T00:35:51.658Z,97985.47
2023-05-14T00:38:19.397Z,97947.88
2023-05-14T00:40:51.150Z,97964.09
2023-05-14T00:43:22.551Z,97964.25
2023-05-14T00:45:53.471Z,97974.50
2023-05-14T00:48:21.382Z,97974.16
2023-05-14T00:50:49.390Z,97975.81
2023-05-14T00:53:16.545Z,97959.13
2023-05-14T00:55:43.498Z,97958.47
2023-05-14T00:58:13.115Z,97952.03
2023-05-14T01:00:40.963Z,97951.19
2023-05-14T01:03:12.068Z,97952.81
2023-05-14T01:06:00.815Z,97949.53
2023-05-14T01:08:33.401Z,97951.34
2023-05-14T01:11:29.206Z,97950.22
2023-05-14T01:14:10.409Z,97950.53
2023-05-14T01:16:42.655Z,97954.00
2023-05-14T01:19:21.796Z,97947.06
2023-05-14T01:21:48.287Z,97931.19
2023-05-14T01:24:14.766Z,97943.94
2023-05-14T01:26:41.304Z,97936.94
2023-05-14T01:29:20.919Z,97936.63
2023-05-14T01:31:49.937Z,97943.25
2023-05-14T01:34:21.075Z,97920.09
2023-05-14T01:36:49.223Z,97949.19
2023-05-14T01:39:15.898Z,97952.19
2023-05-14T01:41:44.076Z,97943.44
2023-05-14T01:44:14.765Z,97953.97
2023-05-14T01:46:42.392Z,97945.19
2023-05-14T01:49:08.850Z,97926.34
2023-05-14T01:51:35.706Z,97934.75
2023-05-14T01:54:02.201Z,97938.25
2023-05-14T01:56:28.674Z,97944.03
2023-05-14T01:58:56.756Z,97933.97
2023-05-14T02:01:23.243Z,97943.88
2023-05-14T02:03:49.744Z,97939.59
2023-05-14T02:06:16.237Z,97922.59
2023-05-14T02:08:46.116Z,97921.59
2023-05-14T02:11:13.297Z,97930.38
2023-05-14T02:13:39.802Z,97938.44
2023-05-14T02:16:06.522Z,97935.81
2023-05-14T02:18:33.101Z,97932.66
2023-05-14T02:20:59.633Z,97945.56
2023-05-14T02:23:34.466Z,97938.59
2023-05-14T02:26:08.530Z,97937.91
2023-05-14T02:28:35.063Z,97953.94
2023-05-14T02:31:01.627Z,97943.19
2023-05-14T02:33:28.368Z,97939.19
2023-05-14T02:35:54.910Z,97948.47
2023-05-14T02:38:22.873Z,97938.72
2023-05-14T02:40:49.317Z,97948.63
2023-05-14T02:43:15.862Z,97951.28
2023-05-14T02:45:42.355Z,97946.16
2023-05-14T02:48:08.853Z,97938.84
2023-05-14T02:50:35.337Z,97927.22
2023-05-14T02:53:01.879Z,97927.53
2023-05-14T02:55:28.404Z,97936.78
2023-05-14T02:57:54.948Z,97929.81
2023-05-14T03:00:21.955Z,97932.13
2023-05-14T03:02:49.098Z,97946.13
2023-05-14T03:05:16.863Z,97929.38
2023-05-14T03:07:43.309Z,97942.47
2023-05-14T03:10:10.354Z,97926.53
2023-05-14T03:12:36.848Z,97935.66
2023-05-14T03:15:03.959Z,97925.09
2023-05-14T03:17:30.459Z,97894.91
2023-05-14T03:19:56.988Z,97911.47
2023-05-14T03:22:23.424Z,97906.03
2023-05-14T03:24:49.874Z,97915.47
2023-05-14T03:27:18.711Z,97909.81
2023-05-14T03:29:45.148Z,97919.56
2023-05-14T03:32:11.759Z,97919.41
2023-05-14T03:34:38.343Z,97900.75
2023-05-14T03:37:05.139Z,97907.16
2023-05-14T03:39:31.704Z,97901.22
2023-05-14T03:41:58.910Z,97888.84
2023-05-14T03:44:25.573Z,97924.91
2023-05-14T03:46:52.046Z,97925.22
2023-05-14T03:49:21.962Z,97931.00
2023-05-14T03:51:51.560Z,97912.84
2023-05-14T03:54:21.407Z,97926.06
2023-05-14T03:56:50.715Z,97925.06
2023-05-14T03:59:19.487Z,97919.28
2023-05-14T04:01:45.981Z,97932.34
2023-05-14T04:04:12.594Z,97921.59
2023-05-14T04:06:39.233Z,97938.44
2023-05-14T04:09:05.783Z,97950.19
2023-05-14T04:11:32.229Z,97939.44
2023-05-14T04:13:58.748Z,97936.28
2023-05-14T04:16:25.251Z,97938.78
2023-05-14T04:18:51.797Z,97939.13
2023-05-14T04:21:20.038Z,97931.31
2023-05-14T04:23:46.537Z,97936.59
2023-05-14T04:26:13.029Z,97934.31
2023-05-14T04:28:39.541Z,97951.88
2023-05-14T04:31:06.106Z,97941.59
2023-05-14T04:33:32.655Z,97937.63
2023-05-14T04:35:59.177Z,97954.34
2023-05-14T04:38:25.818Z,97935.97
2023-05-14T04:40:52.230Z,97951.03
2023-05-14T04:43:18.706Z,97946.72
2023-05-14T04:45:45.272Z,97936.31
2023-05-14T04:48:12.229Z,97950.38
2023-05-14T04:50:38.748Z,97943.94
2023-05-14T04:53:05.249Z,97949.38
2023-05-14T04:55:31.748Z,97943.94
2023-05-14T04:57:58.336Z,97948.06
2023-05-14T05:00:24.969Z,97947.06
2023-05-14T05:02:53.201Z,97950.53
2023-05-14T05:05:19.920Z,97955.69
2023-05-14T05:07:46.450Z,97947.06
2023-05-14T05:10:12.903Z,97945.09
2023-05-14T05:12:39.492Z,97943.59
2023-05-14T05:15:06.469Z,97962.28
2023-05-14T05:17:32.999Z,97937.31
2023-05-14T05:19:59.533Z,97955.84
2023-05-14T05:22:26.041Z,97948.72
2023-05-14T05:24:54.161Z,97939.44
2023-05-14T05:27:23.051Z,97958.63
2023-05-14T05:29:49.490Z,97965.94
2023-05-14T05:32:16.041Z,97956.97
2023-05-14T05:34:42.659Z,97954.19
2023-05-14T05:37:12.694Z,97966.25
2023-05-14T05:39:39.686Z,97951.84
2023-05-14T05:42:06.674Z,97952.69
2023-05-14T05:44:33.172Z,97961.78
2023-05-14T05:46:59.818Z,97964.13
2023-05-14T05:49:26.517Z,97961.13
2023-05-14T05:51:55.906Z,97961.31
2023-05-14T05:54:27.225Z,97980.19
2023-05-14T05:56:54.650Z,97982.81
2023-05-14T05:59:21.652Z,97975.03
2023-05-14T06:01:48.693Z,97976.16
2023-05-14T06:04:15.215Z,97974.00
2023-05-14T06:06:41.949Z,97994.22
2023-05-14T06:09:09.065Z,97979.00
2023-05-14T06:11:36.039Z,97984.75
2023-05-14T06:14:02.589Z,97974.16
2023-05-14T06:16:29.220Z,97978.44
2023-05-14T06:18:56.061Z,97982.09
2023-05-14T06:21:25.820Z,97974.84
2023-05-14T06:23:54.884Z,97981.66
2023-05-14T06:26:23.786Z,97980.19
2023-05-14T06:28:50.350Z,97965.59
2023-05-14T06:31:16.823Z,97981.44
2023-05-14T06:33:43.460Z,97967.84
2023-05-14T06:36:10.287Z,97974.56
2023-05-14T06:38:36.851Z,97971.25
2023-05-14T06:41:03.579Z,97985.97
2023-05-14T06:43:30.122Z,97986.47
2023-05-14T06:45:56.578Z,97975.53
2023-05-14T06:48:29.240Z,97960.78
2023-05-14T06:50:56.264Z,97968.78
2023-05-14T06:53:25.977Z,97971.66
2023-05-14T06:55:53.259Z,97978.47
2023-05-14T06:58:19.705Z,97977.31
2023-05-14T07:00:46.156Z,97981.94
2023-05-14T07:03:12.665Z,97981.44
2023-05-14T07:05:40.781Z,97987.44
2023-05-14T07:08:07.306Z,97988.41
2023-05-14T07:10:33.899Z,97982.75
2023-05-14T07:13:00.389Z,97982.72
2023-05-14T07:15:26.828Z,97989.31
2023-05-14T07:17:56.531Z,97988.78
2023-05-14T07:20:26.801Z,97987.81
2023-05-14T07:22:54.150Z,97989.66
2023-05-14T07:25:20.637Z,97989.31
2023-05-14T07:27:51.313Z,97987.56
2023-05-14T07:30:18.404Z,97984.13
2023-05-14T07:32:45.357Z,97986.78
2023-05-14T07:35:11.977Z,97987.84
2023-05-14T07:37:38.753Z,97990.44
2023-05-14T07:40:05.680Z,98000.13
2023-05-14T07:42:36.787Z,98001.13
2023-05-14T07:45:04.955Z,98001.94
2023-05-14T07:47:31.652Z,98009.09
2023-05-14T07:49:58.228Z,97996.78
2023-05-14T07:52:25.208Z,97998.06
2023-05-14T07:54:54.243Z,98000.78
2023-05-14T07:57:20.978Z,97991.59
2023-05-14T07:59:48.478Z,98003.06
2023-05-14T08:02:16.767Z,97997.31
2023-05-14T08:04:43.830Z,97995.22
2023-05-14T08:07:10.749Z,97992.91
2023-05-14T08:09:37.558Z,97998.69
2023-05-14T08:12:04.448Z,97995.59
2023-05-14T08:14:30.939Z,98001.72
2023-05-14T08:16:57.565Z,98000.72
2023-05-14T08:19:24.851Z,98008.22
2023-05-14T08:21:52.800Z,98010.22
2023-05-14T08:24:19.721Z,97994.84
2023-05-14T08:26:46.584Z,97996.31
2023-05-14T08:29:14.799Z,98002.72
2023-05-14T08:31:42.947Z,98003.47
2023-05-14T08:34:09.442Z,98002.59
2023-05-14T08:36:35.917Z,97998.53
2023-05-14T08:39:02.610Z,97989.09
2023-05-14T08:41:29.470Z,97995.06
2023-05-14T08:44:10.831Z,97993.34
2023-05-14T08:46:38.878Z,97997.19
2023-05-14T08:49:14.924Z,98002.91
2023-05-14T08:51:42.457Z,97984.09
2023-05-14T08:54:10.504Z,97986.75
2023-05-14T08:56:37.145Z,97985.72
2023-05-14T08:59:03.609Z,97993.53
2023-05-14T09:01:30.383Z,97984.91
2023-05-14T09:03:57.934Z,97993.41
2023-05-14T09:06:26.087Z,97994.72
2023-05-14T09:09:01.428Z,97973.59
2023-05-14T09:11:27.933Z,97991.34
2023-05-14T09:13:57.181Z,97999.28
2023-05-14T09:16:26.027Z,97997.91
2023-05-14T09:18:56.267Z,97998.09
2023-05-14T09:21:24.413Z,97988.16
2023-05-14T09:23:55.587Z,97972.81
2023-05-14T09:26:26.401Z,97977.56
2023-05-14T09:28:57.865Z,97987.25
2023-05-14T09:31:31.899Z,97989.72
2023-05-14T09:33:59.412Z,97978.56
2023-05-14T09:36:27.171Z,97989.25
2023-05-14T09:38:57.617Z,97985.06
2023-05-14T09:41:29.240Z,97995.25
2023-05-14T09:43:57.430Z,97985.91
2023-05-14T09:46:30.201Z,97984.53
2023-05-14T09:48:57.068Z,97990.66
2023-05-14T09:51:31.496Z,97994.03
2023-05-14T09:53:58.594Z,97987.78
2023-05-14T09:56:25.069Z,97990.56
2023-05-14T09:58:54.645Z,97988.00
2023-05-14T10:01:26.651Z,97989.22
2023-05-14T10:03:55.016Z,97988.19
2023-05-14T10:06:26.650Z,97983.97
2023-05-14T10:09:00.533Z,97990.94
2023-05-14T10:11:31.788Z,97992.59
2023-05-14T10:14:04.610Z,97994.66
2023-05-14T10:16:35.039Z,97998.97
2023-05-14T10:19:09.235Z,97990.53
2023-05-14T10:21:37.519Z,97991.34
2023-05-14T10:24:05.356Z,97979.19
2023-05-14T10:26:33.486Z,97984.91
2023-05-14T10:29:00.140Z,97991.78
2023-05-14T10:31:46.170Z,97987.47
2023-05-14T10:34:32.258Z,97990.72
2023-05-14T10:37:00.907Z,97987.34
2023-05-14T10:39:57.386Z,97983.72
2023-05-14T10:42:27.518Z,97990.34
2023-05-14T10:44:58.375Z,97983.69
2023-05-14T10:47:26.538Z,97981.25
2023-05-14T10:49:59.158Z,97985.81
2023-05-14T10:52:26.626Z,97986.63
2023-05-14T10:55:00.636Z,97990.28
2023-05-14T10:57:32.764Z,97990.66
2023-05-14T11:00:01.362Z,97993.16
2023-05-14T11:02:40.321Z,97975.38
2023-05-14T11:05:10.674Z,97978.03
2023-05-14T11:07:49.585Z,98004.22
2023-05-14T11:10:18.334Z,97992.31
2023-05-14T11:12:49.629Z,97993.41
2023-05-14T11:15:18.471Z,97992.16
2023-05-14T11:17:46.244Z,97992.38
2023-05-14T11:20:13.998Z,97986.84
2023-05-14T11:22:42.212Z,97983.63
2023-05-14T11:25:10.315Z,97981.84
2023-05-14T11:27:39.025Z,97979.28
2023-05-14T11:30:12.133Z,97975.84
2023-05-14T11:32:39.060Z,97979.34
2023-05-14T11:35:05.953Z,97974.94
2023-05-14T11:37:32.507Z,97978.88
2023-05-14T11:40:00.577Z,97963.34
2023-05-14T11:42:27.357Z,97972.84
2023-05-14T11:44:56.723Z,97976.72
2023-05-14T11:47:24.498Z,97978.66
2023-05-14T11:49:51.337Z,97970.41
2023-05-14T11:52:19.654Z,97974.56
2023-05-14T11:54:46.856Z,97974.41
2023-05-14T11:57:16.935Z,97967.22
2023-05-14T11:59:43.988Z,97968.31
2023-05-14T12:02:18.651Z,97975.22
2023-05-14T12:04:51.241Z,97970.69
2023-05-14T12:07:17.977Z,97972.19
2023-05-14T12:09:50.648Z,97958.47
2023-05-14T12:12:23.446Z,97961.50
2023-05-14T12:14:50.628Z,97955.97
2023-05-14T12:17:17.222Z,97965.84
2023-05-14T12:19:45.220Z,97955.56
2023-05-14T12:22:13.818Z,97951.34
2023-05-14T12:24:40.471Z,97960.75
2023-05-14T12:27:08.176Z,97947.22
2023-05-14T12:29:41.534Z,97946.41
2023-05-14T12:32:09.577Z,97951.06
2023-05-14T12:34:37.792Z,97947.03
2023-05-14T12:37:05.330Z,97939.78
2023-05-14T12:39:34.184Z,97945.78
2023-05-14T12:42:01.363Z,97915.53
2023-05-14T12:44:28.195Z,97920.78
2023-05-14T12:46:55.072Z,97935.13
2023-05-14T12:49:23.949Z,97927.72
2023-05-14T12:51:54.506Z,97925.78
2023-05-14T12:54:26.520Z,97925.69
2023-05-14T12:56:57.778Z,97914.03
2023-05-14T12:59:27.153Z,97900.69
2023-05-14T13:01:57.013Z,97923.50
2023-05-14T13:04:23.512Z,97907.06
2023-05-14T13:06:50.124Z,97908.94
2023-05-14T13:09:16.642Z,97911.66
2023-05-14T13:11:43.122Z,97912.41
2023-05-14T13:14:09.607Z,97915.53
2023-05-14T13:16:36.338Z,97898.31
2023-05-14T13:19:02.878Z,97909.78
2023-05-14T13:21:29.403Z,97908.50
2023-05-14T13:23:55.844Z,97904.91
2023-05-14T13:26:22.505Z,97906.34
2023-05-14T13:28:49.065Z,97914.72
2023-05-14T13:31:15.706Z,97916.22
2023-05-14T13:33:43.790Z,97898.72
2023-05-14T13:36:11.952Z,97909.50
2023-05-14T13:38:38.516Z,97894.09
2023-05-14T13:41:05.658Z,97903.69
2023-05-14T13:43:36.004Z,97910.78
2023-05-14T13:46:04.964Z,97905.38
2023-05-14T13:48:31.669Z,97897.41
2023-05-14T13:50:58.418Z,97883.13
2023-05-14T13:53:26.108Z,97884.31
2023-05-14T13:56:00.918Z,97883.50
2023-05-14T13:58:28.206Z,97879.56
2023-05-14T14:00:54.793Z,97869.22
2023-05-14T14:03:21.448Z,97863.78
2023-05-14T14:05:48.136Z,97864.84
2023-05-14T14:08:23.437Z,97858.94
2023-05-14T14:10:51.534Z,97859.59
2023-05-14T14:13:18.013Z,97843.22
2023-05-14T14:15:44.601Z,97866.94
2023-05-14T14:18:11.131Z,97865.66
2023-05-14T14:20:38.157Z,97864.97
2023-05-14T14:23:04.597Z,97849.53
2023-05-14T14:25:31.054Z,97847.41
2023-05-14T14:27:57.540Z,97849.41
2023-05-14T14:30:25.308Z,97855.19
2023-05-14T14:32:51.987Z,97855.19
2023-05-14T14:35:19.654Z,97837.56
2023-05-14T14:37:50.610Z,97854.78
2023-05-14T14:40:17.329Z,97877.09
2023-05-14T14:42:44.311Z,97882.78
2023-05-14T14:45:11.184Z,97863.78
2023-05-14T14:47:38.192Z,97846.03
2023-05-14T14:50:06.323Z,97866.69
2023-05-14T14:52:33.085Z,97858.00
2023-05-14T14:54:59.568Z,97873.72
2023-05-14T14:57:26.765Z,97849.38
2023-05-14T14:59:53.249Z,97829.06
2023-05-14T15:02:20.305Z,97855.84
2023-05-14T15:04:46.930Z,97867.09
2023-05-14T15:07:13.666Z,97859.66
2023-05-14T15:09:40.214Z,97856.41
2023-05-14T15:12:08.010Z,97856.16
2023-05-14T15:14:35.172Z,97866.84
2023-05-14T15:17:01.960Z,97858.59
2023-05-14T15:19:29.440Z,97851.38
2023-05-14T15:21:56.090Z,97844.41
2023-05-14T15:24:24.029Z,97858.66
2023-05-14T15:26:52.760Z,97852.09
2023-05-14T15:29:20.014Z,97860.38
2023-05-14T15:31:46.724Z,97857.69
2023-05-14T15:34:13.369Z,97856.47
2023-05-14T15:36:40.172Z,97850.41
2023-05-14T15:39:10.240Z,97844.28
2023-05-14T15:41:37.206Z,97860.06
2023-05-14T15:44:04.092Z,97876.78
2023-05-14T15:46:31.171Z,97827.06
2023-05-14T15:48:58.355Z,97850.69
2023-05-14T15:51:24.989Z,97863.88
2023-05-14T15:53:53.572Z,97846.19
2023-05-14T15:56:21.214Z,97845.78
2023-05-14T15:58:48.260Z,97841.47
2023-05-14T16:01:14.879Z,97843.94
2023-05-14T16:03:41.638Z,97863.47
2023-05-14T16:06:08.287Z,97875.19
2023-05-14T16:08:34.790Z,97868.78
2023-05-14T16:11:01.517Z,97862.84
2023-05-14T16:13:27.969Z,97863.41
2023-05-14T16:15:54.745Z,97865.25
2023-05-14T16:18:22.096Z,97866.22
2023-05-14T16:20:50.337Z,97872.47
2023-05-14T16:23:16.856Z,97877.66
2023-05-14T16:25:43.545Z,97866.03
2023-05-14T16:28:10.107Z,97862.59
2023-05-14T16:30:37.036Z,97857.50
2023-05-14T16:33:03.791Z,97857.09
2023-05-14T16:35:30.643Z,97868.00
2023-05-14T16:37:57.423Z,97861.56
2023-05-14T16:40:24.640Z,97867.69
2023-05-14T16:42:51.685Z,97860.50
2023-05-14T16:45:18.992Z,97855.81
2023-05-14T16:47:45.836Z,97864.09
2023-05-14T16:50:12.497Z,97867.94
2023-05-14T16:52:39.038Z,97854.72
2023-05-14T16:55:06.216Z,97869.75
2023-05-14T16:57:33.069Z,97861.50
2023-05-14T16:59:59.838Z,97870.00
2023-05-14T17:02:26.437Z,97868.19
2023-05-14T17:04:54.660Z,97861.22
2023-05-14T17:07:21.284Z,97865.75
2023-05-14T17:09:47.871Z,97861.09
2023-05-14T17:12:14.725Z,97866.31
2023-05-14T17:14:41.447Z,97859.34
2023-05-14T17:17:08.003Z,97876.44
2023-05-14T17:19:34.558Z,97875.38
2023-05-14T17:22:01.085Z,97880.94
2023-05-14T17:24:27.648Z,97888.94
2023-05-14T17:26:54.173Z,97888.88
2023-05-14T17:29:22.430Z,97881.44
2023-05-14T17:31:54.586Z,97874.59
2023-05-14T17:34:21.397Z,97884.50
2023-05-14T17:36:47.969Z,97888.00
2023-05-14T17:39:16.000Z,97893.06
2023-05-14T17:41:42.953Z,97888.47
2023-05-14T17:44:11.999Z,97894.34
2023-05-14T17:46:39.544Z,97852.53
2023-05-14T17:49:08.350Z,97903.97
2023-05-14T17:51:35.307Z,97877.91
2023-05-14T17:54:02.098Z,97864.69
2023-05-14T17:56:29.240Z,97874.38
2023-05-14T17:58:55.774Z,97869.44
2023-05-14T18:01:23.551Z,97887.00
2023-05-14T18:03:51.076Z,97881.75
2023-05-14T18:06:17.840Z,97896.56
2023-05-14T18:08:44.470Z,97904.34
2023-05-14T18:11:11.186Z,97915.38
2023-05-14T18:13:38.098Z,97887.28
2023-05-14T18:16:06.073Z,97900.44
2023-05-14T18:18:35.392Z,97897.69
2023-05-14T18:21:04.411Z,97891.94
2023-05-14T18:23:31.496Z,97925.44
2023-05-14T18:25:58.302Z,97934.81
2023-05-14T18:28:26.553Z,97937.13
2023-05-14T18:30:53.353Z,97929.84
2023-05-14T18:33:20.378Z,97935.94
2023-05-14T18:35:47.405Z,97950.53
2023-05-14T18:38:15.386Z,97952.09
2023-05-14T18:40:42.062Z,97945.69
2023-05-14T18:43:08.699Z,97928.53
2023-05-14T18:45:38.887Z,97924.16
2023-05-14T18:48:06.138Z,97919.22
2023-05-14T18:50:32.983Z,97952.16
2023-05-14T18:52:59.642Z,97942.44
2023-05-14T18:55:27.016Z,97956.66
2023-05-14T18:57:53.960Z,97939.41
2023-05-14T19:00:20.895Z,97958.09
2023-05-14T19:02:47.721Z,97965.72
2023-05-14T19:05:14.397Z,97943.19
2023-05-14T19:07:41.714Z,97966.53
2023-05-14T19:10:09.050Z,97967.72
2023-05-14T19:12:39.332Z,97974.28
2023-05-14T19:15:06.542Z,97936.69
2023-05-14T19:17:37.645Z,97935.59
2023-05-14T19:20:07.702Z,97936.38
2023-05-14T19:22:34.278Z,97957.56
2023-05-14T19:25:00.791Z,97969.28
2023-05-14T19:27:27.447Z,97959.63
2023-05-14T19:29:53.901Z,97966.75
2023-05-14T19:32:20.489Z,97973.22
2023-05-14T19:34:47.125Z,97986.22
2023-05-14T19:37:14.197Z,97988.47
2023-05-14T19:39:40.746Z,97998.44
2023-05-14T19:42:07.384Z,97998.97
2023-05-14T19:44:33.907Z,98014.81
2023-05-14T19:47:00.703Z,98009.22
2023-05-14T19:49:27.197Z,98019.81
2023-05-14T19:51:54.420Z,98014.97
2023-05-14T19:54:21.362Z,98005.75
2023-05-14T19:56:48.485Z,98017.91
2023-05-14T19:59:15.146Z,98000.41
2023-05-14T20:01:41.891Z,98011.63
2023-05-14T20:04:08.639Z,98025.72
2023-05-14T20:06:35.412Z,98024.31
2023-05-14T20:09:02.077Z,98020.34
2023-05-14T20:11:28.786Z,98027.34
2023-05-14T20:13:55.655Z,98026.84
2023-05-14T20:16:23.400Z,98042.06
2023-05-14T20:18:50.357Z,98031.09
2023-05-14T20:21:17.004Z,98025.78
2023-05-14T20:23:43.500Z,98039.25
2023-05-14T20:26:10.113Z,98040.56
2023-05-14T20:28:37.034Z,98049.00
2023-05-14T20:31:04.107Z,98043.88
2023-05-14T20:33:30.990Z,98039.78
2023-05-14T20:35:57.864Z,98040.28
2023-05-14T20:38:25.690Z,98041.28
2023-05-14T20:40:52.391Z,98052.91
2023-05-14T20:43:18.884Z,98053.88
2023-05-14T20:45:45.556Z,98058.09
2023-05-14T20:48:16.206Z,98057.22
2023-05-14T20:50:43.482Z,98058.84
2023-05-14T20:53:10.324Z,98064.09
2023-05-14T20:55:37.153Z,98056.84
2023-05-14T20:58:03.919Z,98058.50
2023-05-14T21:00:30.548Z,98053.97
2023-05-14T21:02:57.539Z,98045.47
2023-05-14T21:05:24.389Z,98038.78
2023-05-14T21:07:51.408Z,98052.06
2023-05-14T21:10:18.190Z,98051.13
2023-05-14T21:12:45.112Z,98054.44
2023-05-14T21:15:12.128Z,98038.22
2023-05-14T21:17:38.697Z,98045.88
2023-05-14T21:20:06.303Z,98042.22
2023-05-14T21:22:32.984Z,98046.53
2023-05-14T21:24:59.483Z,98031.53
2023-05-14T21:27:27.379Z,98032.00
2023-05-14T21:29:54.097Z,98045.69
2023-05-14T21:32:22.118Z,98040.78
2023-05-14T21:34:49.074Z,98042.78
2023-05-14T21:37:15.850Z,98031.94
2023-05-14T21:39:42.349Z,98045.66
2023-05-14T21:42:09.536Z,98028.31
2023-05-14T21:44:36.331Z,98029.84
2023-05-14T21:47:03.788Z,98042.53
2023-05-14T21:49:30.822Z,98041.19
2023-05-14T21:51:57.351Z,98035.88
2023-05-14T21:54:23.913Z,98040.84
2023-05-14T21:56:50.459Z,98029.72
2023-05-14T21:59:16.956Z,98028.50
2023-05-14T22:04:12.956Z,98028.75
2023-05-14T22:06:39.741Z,98029.75
2023-05-14T22:09:06.247Z,98025.63
2023-05-14T22:11:32.730Z,98016.97
2023-05-14T22:13:59.222Z,98021.91
2023-05-14T22:16:26.806Z,98018.34
2023-05-14T22:18:56.036Z,98010.78
2023-05-14T22:21:22.535Z,98019.50
2023-05-14T22:23:50.243Z,98019.34
2023-05-14T22:26:16.739Z,98015.53
2023-05-14T22:28:43.701Z,98015.53
2023-05-14T22:31:10.708Z,98023.81
2023-05-14T22:33:37.166Z,98011.66
2023-05-14T22:36:03.855Z,98017.16
2023-05-14T22:38:30.303Z,98019.81
2023-05-14T22:40:56.755Z,98019.44
2023-05-14T22:43:23.181Z,98014.78
2023-05-14T22:45:49.703Z,98011.09
2023-05-14T22:48:16.252Z,98017.41
2023-05-14T22:50:42.754Z,98010.59
2023-05-14T22:53:09.432Z,98015.16
2023-05-14T22:55:36.164Z,98012.31
2023-05-14T22:58:02.704Z,98015.06
2023-05-14T23:00:29.166Z,98013.22
2023-05-14T23:02:55.899Z,98016.84
2023-05-14T23:05:23.029Z,98017.44
2023-05-14T23:07:49.655Z,98015.28
2023-05-14T23:10:16.177Z,98015.28
2023-05-14T23:12:42.758Z,98012.88
2023-05-14T23:15:09.557Z,98006.06
2023-05-14T23:17:36.246Z,98007.50
2023-05-14T23:20:04.880Z,97994.25
2023-05-14T23:22:31.555Z,98000.31
2023-05-14T23:24:57.994Z,98002.25
2023-05-14T23:27:24.432Z,97992.84
2023-05-14T23:29:50.944Z,98009.03
2023-05-14T23:32:17.455Z,97977.94
2023-05-14T23:34:44.407Z,97997.59
2023-05-14T23:37:11.003Z,97986.69
2023-05-14T23:39:37.612Z,98000.13
2023-05-14T23:42:04.142Z,97995.53
2023-05-14T23:44:30.587Z,97995.84
2023-05-14T23:46:57.118Z,97985.72
2023-05-14T23:49:23.622Z,98002.06
2023-05-14T23:51:50.124Z,98001.19
2023-05-14T23:54:17.358Z,97992.28
2023-05-14T23:56:43.997Z,97992.09
2023-05-14T23:59:11.671Z,97996.00
